sensor_id;sensor_type;location;lat;lon;timestamp;P1;durP1;ratioP1;P2;durP2;ratioP2
18596;SDS011;9428;50.950;6.912;2022-12-18T00:00:25;22.23;;;9.33;;
18596;SDS011;9428;50.950;6.912;2022-12-18T00:03:12;21.67;;;9.07;;
18596;SDS011;9428;50.950;6.912;2022-12-18T00:05:59;19.50;;;8.27;;
18596;SDS011;9428;50.950;6.912;2022-12-18T00:08:48;21.47;;;9.00;;
18596;SDS011;9428;50.950;6.912;2022-12-18T00:11:36;21.97;;;9.97;;
18596;SDS011;9428;50.950;6.912;2022-12-18T00:14:23;18.87;;;8.93;;
18596;SDS011;9428;50.950;6.912;2022-12-18T00:17:10;17.67;;;8.40;;
18596;SDS011;9428;50.950;6.912;2022-12-18T00:19:57;21.13;;;9.20;;
18596;SDS011;9428;50.950;6.912;2022-12-18T00:22:45;19.43;;;9.50;;
18596;SDS011;9428;50.950;6.912;2022-12-18T00:25:33;18.53;;;9.17;;
18596;SDS011;9428;50.950;6.912;2022-12-18T00:28:21;17.70;;;8.90;;
18596;SDS011;9428;50.950;6.912;2022-12-18T00:31:09;22.63;;;9.93;;
18596;SDS011;9428;50.950;6.912;2022-12-18T00:33:57;13.73;;;6.83;;
18596;SDS011;9428;50.950;6.912;2022-12-18T00:36:46;22.10;;;8.83;;
18596;SDS011;9428;50.950;6.912;2022-12-18T00:39:34;18.10;;;8.60;;
18596;SDS011;9428;50.950;6.912;2022-12-18T00:42:23;16.10;;;8.23;;
18596;SDS011;9428;50.950;6.912;2022-12-18T00:45:28;21.90;;;8.60;;
18596;SDS011;9428;50.950;6.912;2022-12-18T00:48:16;14.10;;;7.60;;
18596;SDS011;9428;50.950;6.912;2022-12-18T00:51:04;18.60;;;8.70;;
18596;SDS011;9428;50.950;6.912;2022-12-18T00:53:52;18.67;;;8.60;;
18596;SDS011;9428;50.950;6.912;2022-12-18T00:56:40;18.73;;;8.27;;
18596;SDS011;9428;50.950;6.912;2022-12-18T00:59:29;19.33;;;9.37;;
18596;SDS011;9428;50.950;6.912;2022-12-18T01:02:16;17.93;;;8.40;;
18596;SDS011;9428;50.950;6.912;2022-12-18T01:05:03;15.70;;;8.73;;
18596;SDS011;9428;50.950;6.912;2022-12-18T01:07:51;17.27;;;8.07;;
18596;SDS011;9428;50.950;6.912;2022-12-18T01:10:39;20.27;;;9.30;;
18596;SDS011;9428;50.950;6.912;2022-12-18T01:13:27;16.90;;;7.83;;
18596;SDS011;9428;50.950;6.912;2022-12-18T01:16:16;20.63;;;8.43;;
18596;SDS011;9428;50.950;6.912;2022-12-18T01:19:04;18.73;;;8.97;;
18596;SDS011;9428;50.950;6.912;2022-12-18T01:21:51;21.23;;;8.60;;
18596;SDS011;9428;50.950;6.912;2022-12-18T01:24:38;17.97;;;7.87;;
18596;SDS011;9428;50.950;6.912;2022-12-18T01:27:25;20.93;;;8.77;;
18596;SDS011;9428;50.950;6.912;2022-12-18T01:30:12;18.27;;;9.03;;
18596;SDS011;9428;50.950;6.912;2022-12-18T01:33:01;15.57;;;8.63;;
18596;SDS011;9428;50.950;6.912;2022-12-18T01:35:50;19.00;;;7.93;;
18596;SDS011;9428;50.950;6.912;2022-12-18T01:38:37;21.23;;;9.77;;
18596;SDS011;9428;50.950;6.912;2022-12-18T01:41:26;19.20;;;8.43;;
18596;SDS011;9428;50.950;6.912;2022-12-18T01:47:43;16.97;;;8.53;;
18596;SDS011;9428;50.950;6.912;2022-12-18T01:50:33;16.33;;;8.60;;
18596;SDS011;9428;50.950;6.912;2022-12-18T01:53:24;16.93;;;8.47;;
18596;SDS011;9428;50.950;6.912;2022-12-18T01:56:14;17.07;;;8.67;;
18596;SDS011;9428;50.950;6.912;2022-12-18T01:59:04;17.83;;;8.83;;
18596;SDS011;9428;50.950;6.912;2022-12-18T02:01:55;17.50;;;8.77;;
18596;SDS011;9428;50.950;6.912;2022-12-18T02:04:43;16.90;;;8.57;;
18596;SDS011;9428;50.950;6.912;2022-12-18T02:07:35;20.13;;;8.83;;
18596;SDS011;9428;50.950;6.912;2022-12-18T02:10:29;22.20;;;8.90;;
18596;SDS011;9428;50.950;6.912;2022-12-18T02:13:23;17.70;;;8.20;;
18596;SDS011;9428;50.950;6.912;2022-12-18T02:16:19;17.00;;;8.87;;
18596;SDS011;9428;50.950;6.912;2022-12-18T02:19:15;17.47;;;9.00;;
18596;SDS011;9428;50.950;6.912;2022-12-18T02:22:27;22.90;;;9.37;;
18596;SDS011;9428;50.950;6.912;2022-12-18T02:25:28;24.53;;;10.53;;
18596;SDS011;9428;50.950;6.912;2022-12-18T02:28:34;16.73;;;8.40;;
18596;SDS011;9428;50.950;6.912;2022-12-18T02:31:25;18.03;;;8.27;;
18596;SDS011;9428;50.950;6.912;2022-12-18T02:34:14;18.83;;;8.63;;
18596;SDS011;9428;50.950;6.912;2022-12-18T02:37:04;18.17;;;8.90;;
18596;SDS011;9428;50.950;6.912;2022-12-18T02:39:54;19.63;;;9.37;;
18596;SDS011;9428;50.950;6.912;2022-12-18T02:42:43;17.73;;;8.77;;
18596;SDS011;9428;50.950;6.912;2022-12-18T02:45:32;20.33;;;9.10;;
18596;SDS011;9428;50.950;6.912;2022-12-18T02:48:21;16.73;;;8.37;;
18596;SDS011;9428;50.950;6.912;2022-12-18T02:51:13;17.47;;;8.17;;
18596;SDS011;9428;50.950;6.912;2022-12-18T02:54:06;16.93;;;8.43;;
18596;SDS011;9428;50.950;6.912;2022-12-18T02:56:57;15.23;;;8.10;;
18596;SDS011;9428;50.950;6.912;2022-12-18T02:59:49;17.83;;;8.30;;
18596;SDS011;9428;50.950;6.912;2022-12-18T03:02:44;18.53;;;9.07;;
18596;SDS011;9428;50.950;6.912;2022-12-18T03:05:39;15.20;;;8.17;;
18596;SDS011;9428;50.950;6.912;2022-12-18T03:08:31;15.33;;;8.23;;
18596;SDS011;9428;50.950;6.912;2022-12-18T03:11:23;15.53;;;8.30;;
18596;SDS011;9428;50.950;6.912;2022-12-18T03:14:26;16.97;;;7.93;;
18596;SDS011;9428;50.950;6.912;2022-12-18T03:17:17;19.97;;;8.77;;
18596;SDS011;9428;50.950;6.912;2022-12-18T03:20:12;15.60;;;8.07;;
18596;SDS011;9428;50.950;6.912;2022-12-18T03:23:04;28.27;;;8.73;;
18596;SDS011;9428;50.950;6.912;2022-12-18T03:25:56;14.13;;;7.70;;
18596;SDS011;9428;50.950;6.912;2022-12-18T03:28:47;18.73;;;8.90;;
18596;SDS011;9428;50.950;6.912;2022-12-18T03:31:37;18.23;;;8.53;;
18596;SDS011;9428;50.950;6.912;2022-12-18T03:34:29;19.03;;;8.03;;
18596;SDS011;9428;50.950;6.912;2022-12-18T03:37:20;15.83;;;7.90;;
18596;SDS011;9428;50.950;6.912;2022-12-18T03:40:07;15.43;;;7.17;;
18596;SDS011;9428;50.950;6.912;2022-12-18T03:42:56;17.27;;;8.63;;
18596;SDS011;9428;50.950;6.912;2022-12-18T03:45:51;17.73;;;9.97;;
18596;SDS011;9428;50.950;6.912;2022-12-18T03:48:41;17.60;;;8.57;;
18596;SDS011;9428;50.950;6.912;2022-12-18T03:51:33;18.13;;;8.67;;
18596;SDS011;9428;50.950;6.912;2022-12-18T03:54:27;23.47;;;9.93;;
18596;SDS011;9428;50.950;6.912;2022-12-18T03:57:16;15.77;;;8.90;;
18596;SDS011;9428;50.950;6.912;2022-12-18T04:00:06;20.73;;;9.33;;
18596;SDS011;9428;50.950;6.912;2022-12-18T04:02:56;17.47;;;8.70;;
18596;SDS011;9428;50.950;6.912;2022-12-18T04:05:46;17.23;;;8.67;;
18596;SDS011;9428;50.950;6.912;2022-12-18T04:08:37;15.63;;;8.60;;
18596;SDS011;9428;50.950;6.912;2022-12-18T04:11:26;20.00;;;8.30;;
18596;SDS011;9428;50.950;6.912;2022-12-18T04:14:13;18.37;;;9.67;;
18596;SDS011;9428;50.950;6.912;2022-12-18T04:17:01;17.70;;;8.77;;
18596;SDS011;9428;50.950;6.912;2022-12-18T04:19:48;18.20;;;9.77;;
18596;SDS011;9428;50.950;6.912;2022-12-18T04:22:36;19.00;;;9.30;;
18596;SDS011;9428;50.950;6.912;2022-12-18T04:25:23;18.57;;;8.47;;
18596;SDS011;9428;50.950;6.912;2022-12-18T04:28:12;21.87;;;9.63;;
18596;SDS011;9428;50.950;6.912;2022-12-18T04:30:59;19.73;;;9.07;;
18596;SDS011;9428;50.950;6.912;2022-12-18T04:33:46;20.30;;;10.10;;
18596;SDS011;9428;50.950;6.912;2022-12-18T04:36:33;18.70;;;9.27;;
18596;SDS011;9428;50.950;6.912;2022-12-18T04:39:21;18.70;;;8.70;;
18596;SDS011;9428;50.950;6.912;2022-12-18T04:42:08;19.50;;;9.43;;
18596;SDS011;9428;50.950;6.912;2022-12-18T04:44:56;20.70;;;8.80;;
18596;SDS011;9428;50.950;6.912;2022-12-18T04:47:43;18.80;;;9.07;;
18596;SDS011;9428;50.950;6.912;2022-12-18T04:50:31;19.83;;;9.47;;
18596;SDS011;9428;50.950;6.912;2022-12-18T04:53:18;22.57;;;9.80;;
18596;SDS011;9428;50.950;6.912;2022-12-18T04:56:06;22.13;;;9.33;;
18596;SDS011;9428;50.950;6.912;2022-12-18T04:58:54;16.40;;;8.60;;
18596;SDS011;9428;50.950;6.912;2022-12-18T05:01:43;19.03;;;9.17;;
18596;SDS011;9428;50.950;6.912;2022-12-18T05:04:31;21.60;;;10.17;;
18596;SDS011;9428;50.950;6.912;2022-12-18T05:07:18;21.30;;;10.90;;
18596;SDS011;9428;50.950;6.912;2022-12-18T05:10:05;19.33;;;9.23;;
18596;SDS011;9428;50.950;6.912;2022-12-18T05:12:53;25.10;;;10.07;;
18596;SDS011;9428;50.950;6.912;2022-12-18T05:15:50;17.97;;;8.80;;
18596;SDS011;9428;50.950;6.912;2022-12-18T05:18:40;23.00;;;11.23;;
18596;SDS011;9428;50.950;6.912;2022-12-18T05:21:27;20.13;;;10.00;;
18596;SDS011;9428;50.950;6.912;2022-12-18T05:24:15;19.10;;;9.87;;
18596;SDS011;9428;50.950;6.912;2022-12-18T05:27:02;20.87;;;9.83;;
18596;SDS011;9428;50.950;6.912;2022-12-18T05:29:49;20.13;;;9.43;;
18596;SDS011;9428;50.950;6.912;2022-12-18T05:32:36;21.33;;;9.60;;
18596;SDS011;9428;50.950;6.912;2022-12-18T05:35:25;19.60;;;10.13;;
18596;SDS011;9428;50.950;6.912;2022-12-18T05:38:12;22.20;;;10.17;;
18596;SDS011;9428;50.950;6.912;2022-12-18T05:40:59;17.33;;;8.97;;
18596;SDS011;9428;50.950;6.912;2022-12-18T05:43:46;19.87;;;10.70;;
18596;SDS011;9428;50.950;6.912;2022-12-18T05:46:34;18.50;;;9.67;;
18596;SDS011;9428;50.950;6.912;2022-12-18T05:49:21;21.07;;;9.90;;
18596;SDS011;9428;50.950;6.912;2022-12-18T05:52:10;18.73;;;10.07;;
18596;SDS011;9428;50.950;6.912;2022-12-18T05:54:57;18.30;;;9.20;;
18596;SDS011;9428;50.950;6.912;2022-12-18T05:57:45;24.57;;;10.77;;
18596;SDS011;9428;50.950;6.912;2022-12-18T06:00:33;18.57;;;9.80;;
18596;SDS011;9428;50.950;6.912;2022-12-18T06:03:25;20.90;;;9.43;;
18596;SDS011;9428;50.950;6.912;2022-12-18T06:06:12;22.17;;;10.00;;
18596;SDS011;9428;50.950;6.912;2022-12-18T06:09:03;20.57;;;9.00;;
18596;SDS011;9428;50.950;6.912;2022-12-18T06:11:53;24.87;;;10.53;;
18596;SDS011;9428;50.950;6.912;2022-12-18T06:14:40;21.20;;;10.27;;
18596;SDS011;9428;50.950;6.912;2022-12-18T06:17:28;23.80;;;10.90;;
18596;SDS011;9428;50.950;6.912;2022-12-18T06:20:15;18.23;;;9.47;;
18596;SDS011;9428;50.950;6.912;2022-12-18T06:23:03;18.80;;;9.63;;
18596;SDS011;9428;50.950;6.912;2022-12-18T06:25:51;27.13;;;11.30;;
18596;SDS011;9428;50.950;6.912;2022-12-18T06:28:39;20.87;;;10.63;;
18596;SDS011;9428;50.950;6.912;2022-12-18T06:31:26;22.70;;;10.00;;
18596;SDS011;9428;50.950;6.912;2022-12-18T06:34:13;18.57;;;9.90;;
18596;SDS011;9428;50.950;6.912;2022-12-18T06:37:00;19.57;;;9.87;;
18596;SDS011;9428;50.950;6.912;2022-12-18T06:39:47;21.53;;;9.80;;
18596;SDS011;9428;50.950;6.912;2022-12-18T06:42:36;18.80;;;10.23;;
18596;SDS011;9428;50.950;6.912;2022-12-18T06:45:23;19.33;;;10.33;;
18596;SDS011;9428;50.950;6.912;2022-12-18T06:48:10;25.63;;;10.47;;
18596;SDS011;9428;50.950;6.912;2022-12-18T06:50:57;24.93;;;9.80;;
18596;SDS011;9428;50.950;6.912;2022-12-18T06:53:45;24.13;;;11.07;;
18596;SDS011;9428;50.950;6.912;2022-12-18T06:56:32;21.90;;;9.07;;
18596;SDS011;9428;50.950;6.912;2022-12-18T06:59:21;20.30;;;10.53;;
18596;SDS011;9428;50.950;6.912;2022-12-18T07:02:10;19.27;;;10.07;;
18596;SDS011;9428;50.950;6.912;2022-12-18T07:04:58;22.40;;;10.27;;
18596;SDS011;9428;50.950;6.912;2022-12-18T07:07:45;22.40;;;11.17;;
18596;SDS011;9428;50.950;6.912;2022-12-18T07:10:32;24.30;;;9.53;;
18596;SDS011;9428;50.950;6.912;2022-12-18T07:13:19;19.60;;;8.97;;
18596;SDS011;9428;50.950;6.912;2022-12-18T07:16:09;20.47;;;10.00;;
18596;SDS011;9428;50.950;6.912;2022-12-18T07:18:57;18.60;;;10.13;;
18596;SDS011;9428;50.950;6.912;2022-12-18T07:21:44;20.13;;;10.20;;
18596;SDS011;9428;50.950;6.912;2022-12-18T07:24:32;21.40;;;10.70;;
18596;SDS011;9428;50.950;6.912;2022-12-18T07:27:19;28.77;;;10.47;;
18596;SDS011;9428;50.950;6.912;2022-12-18T07:30:07;16.77;;;8.30;;
18596;SDS011;9428;50.950;6.912;2022-12-18T07:32:57;23.17;;;10.33;;
18596;SDS011;9428;50.950;6.912;2022-12-18T07:35:44;23.67;;;9.97;;
18596;SDS011;9428;50.950;6.912;2022-12-18T07:38:31;22.77;;;10.70;;
18596;SDS011;9428;50.950;6.912;2022-12-18T07:41:19;21.80;;;10.30;;
18596;SDS011;9428;50.950;6.912;2022-12-18T07:44:08;22.37;;;10.30;;
18596;SDS011;9428;50.950;6.912;2022-12-18T07:46:56;23.20;;;11.53;;
18596;SDS011;9428;50.950;6.912;2022-12-18T07:49:44;22.57;;;9.37;;
18596;SDS011;9428;50.950;6.912;2022-12-18T07:52:31;28.33;;;10.60;;
18596;SDS011;9428;50.950;6.912;2022-12-18T07:55:18;24.40;;;11.37;;
18596;SDS011;9428;50.950;6.912;2022-12-18T07:58:06;22.27;;;10.00;;
18596;SDS011;9428;50.950;6.912;2022-12-18T08:00:53;21.03;;;10.13;;
18596;SDS011;9428;50.950;6.912;2022-12-18T08:03:41;19.13;;;11.20;;
18596;SDS011;9428;50.950;6.912;2022-12-18T08:06:30;20.27;;;10.57;;
18596;SDS011;9428;50.950;6.912;2022-12-18T08:09:17;19.67;;;10.57;;
18596;SDS011;9428;50.950;6.912;2022-12-18T08:12:05;23.93;;;9.80;;
18596;SDS011;9428;50.950;6.912;2022-12-18T08:14:52;24.57;;;11.07;;
18596;SDS011;9428;50.950;6.912;2022-12-18T08:17:39;19.17;;;9.87;;
18596;SDS011;9428;50.950;6.912;2022-12-18T08:20:26;22.33;;;11.47;;
18596;SDS011;9428;50.950;6.912;2022-12-18T08:23:15;22.47;;;11.43;;
18596;SDS011;9428;50.950;6.912;2022-12-18T08:26:02;23.43;;;11.40;;
18596;SDS011;9428;50.950;6.912;2022-12-18T08:28:50;22.13;;;10.13;;
18596;SDS011;9428;50.950;6.912;2022-12-18T08:31:37;21.50;;;9.67;;
18596;SDS011;9428;50.950;6.912;2022-12-18T08:34:24;24.63;;;11.33;;
18596;SDS011;9428;50.950;6.912;2022-12-18T08:37:11;23.90;;;11.30;;
18596;SDS011;9428;50.950;6.912;2022-12-18T08:40:00;18.83;;;10.43;;
18596;SDS011;9428;50.950;6.912;2022-12-18T08:42:47;22.10;;;11.30;;
18596;SDS011;9428;50.950;6.912;2022-12-18T08:45:52;19.73;;;10.13;;
18596;SDS011;9428;50.950;6.912;2022-12-18T08:48:40;23.10;;;11.77;;
18596;SDS011;9428;50.950;6.912;2022-12-18T08:51:27;26.97;;;11.93;;
18596;SDS011;9428;50.950;6.912;2022-12-18T08:54:14;23.87;;;10.53;;
18596;SDS011;9428;50.950;6.912;2022-12-18T08:57:03;23.23;;;11.00;;
18596;SDS011;9428;50.950;6.912;2022-12-18T08:59:50;19.97;;;10.60;;
18596;SDS011;9428;50.950;6.912;2022-12-18T09:02:37;23.97;;;11.17;;
18596;SDS011;9428;50.950;6.912;2022-12-18T09:05:24;24.17;;;10.63;;
18596;SDS011;9428;50.950;6.912;2022-12-18T09:08:11;19.60;;;10.20;;
18596;SDS011;9428;50.950;6.912;2022-12-18T09:10:59;19.20;;;10.37;;
18596;SDS011;9428;50.950;6.912;2022-12-18T09:13:47;22.23;;;10.30;;
18596;SDS011;9428;50.950;6.912;2022-12-18T09:16:35;18.63;;;10.13;;
18596;SDS011;9428;50.950;6.912;2022-12-18T09:19:22;23.70;;;10.87;;
18596;SDS011;9428;50.950;6.912;2022-12-18T09:22:09;24.27;;;10.47;;
18596;SDS011;9428;50.950;6.912;2022-12-18T09:24:56;22.30;;;11.63;;
18596;SDS011;9428;50.950;6.912;2022-12-18T09:27:46;20.33;;;10.23;;
18596;SDS011;9428;50.950;6.912;2022-12-18T09:30:36;23.87;;;11.20;;
18596;SDS011;9428;50.950;6.912;2022-12-18T09:33:23;21.10;;;9.80;;
18596;SDS011;9428;50.950;6.912;2022-12-18T09:36:11;17.40;;;9.57;;
18596;SDS011;9428;50.950;6.912;2022-12-18T09:39:00;27.43;;;11.33;;
18596;SDS011;9428;50.950;6.912;2022-12-18T09:41:47;20.90;;;10.90;;
18596;SDS011;9428;50.950;6.912;2022-12-18T09:44:39;22.67;;;10.23;;
18596;SDS011;9428;50.950;6.912;2022-12-18T09:47:34;27.80;;;11.40;;
18596;SDS011;9428;50.950;6.912;2022-12-18T09:50:24;22.40;;;10.67;;
18596;SDS011;9428;50.950;6.912;2022-12-18T09:53:17;18.63;;;9.83;;
18596;SDS011;9428;50.950;6.912;2022-12-18T09:56:10;21.97;;;9.83;;
18596;SDS011;9428;50.950;6.912;2022-12-18T09:59:03;22.17;;;10.47;;
18596;SDS011;9428;50.950;6.912;2022-12-18T10:01:51;22.87;;;11.57;;
18596;SDS011;9428;50.950;6.912;2022-12-18T10:04:39;20.37;;;10.37;;
18596;SDS011;9428;50.950;6.912;2022-12-18T10:07:27;23.17;;;11.17;;
18596;SDS011;9428;50.950;6.912;2022-12-18T10:10:26;18.07;;;10.30;;
18596;SDS011;9428;50.950;6.912;2022-12-18T10:13:22;25.13;;;10.57;;
18596;SDS011;9428;50.950;6.912;2022-12-18T10:16:14;17.13;;;9.60;;
18596;SDS011;9428;50.950;6.912;2022-12-18T10:19:10;24.90;;;10.83;;
18596;SDS011;9428;50.950;6.912;2022-12-18T10:22:16;20.40;;;9.60;;
18596;SDS011;9428;50.950;6.912;2022-12-18T10:25:28;20.50;;;10.23;;
18596;SDS011;9428;50.950;6.912;2022-12-18T10:28:21;21.30;;;10.00;;
18596;SDS011;9428;50.950;6.912;2022-12-18T10:31:12;23.87;;;10.67;;
18596;SDS011;9428;50.950;6.912;2022-12-18T10:34:03;19.10;;;10.23;;
18596;SDS011;9428;50.950;6.912;2022-12-18T10:36:50;20.47;;;10.20;;
18596;SDS011;9428;50.950;6.912;2022-12-18T10:39:39;21.37;;;10.83;;
18596;SDS011;9428;50.950;6.912;2022-12-18T10:42:26;20.27;;;10.47;;
18596;SDS011;9428;50.950;6.912;2022-12-18T10:45:14;22.60;;;11.37;;
18596;SDS011;9428;50.950;6.912;2022-12-18T10:48:04;21.37;;;10.67;;
18596;SDS011;9428;50.950;6.912;2022-12-18T10:50:54;21.20;;;10.03;;
18596;SDS011;9428;50.950;6.912;2022-12-18T10:53:44;21.87;;;10.80;;
18596;SDS011;9428;50.950;6.912;2022-12-18T10:56:41;20.33;;;9.60;;
18596;SDS011;9428;50.950;6.912;2022-12-18T10:59:29;19.83;;;9.80;;
18596;SDS011;9428;50.950;6.912;2022-12-18T11:02:37;20.17;;;10.23;;
18596;SDS011;9428;50.950;6.912;2022-12-18T11:05:26;23.17;;;10.07;;
18596;SDS011;9428;50.950;6.912;2022-12-18T11:08:20;20.43;;;10.60;;
18596;SDS011;9428;50.950;6.912;2022-12-18T11:11:14;18.53;;;9.83;;
18596;SDS011;9428;50.950;6.912;2022-12-18T11:14:11;22.80;;;11.40;;
18596;SDS011;9428;50.950;6.912;2022-12-18T11:17:01;22.90;;;10.10;;
18596;SDS011;9428;50.950;6.912;2022-12-18T11:19:51;23.00;;;10.83;;
18596;SDS011;9428;50.950;6.912;2022-12-18T11:22:39;24.30;;;10.87;;
18596;SDS011;9428;50.950;6.912;2022-12-18T11:25:27;21.83;;;10.37;;
18596;SDS011;9428;50.950;6.912;2022-12-18T11:28:25;15.97;;;9.20;;
18596;SDS011;9428;50.950;6.912;2022-12-18T11:31:23;19.07;;;9.77;;
18596;SDS011;9428;50.950;6.912;2022-12-18T11:34:14;22.33;;;10.60;;
18596;SDS011;9428;50.950;6.912;2022-12-18T11:37:08;20.43;;;10.53;;
18596;SDS011;9428;50.950;6.912;2022-12-18T11:39:58;22.97;;;10.43;;
18596;SDS011;9428;50.950;6.912;2022-12-18T11:42:50;20.67;;;10.43;;
18596;SDS011;9428;50.950;6.912;2022-12-18T11:45:43;24.27;;;9.77;;
18596;SDS011;9428;50.950;6.912;2022-12-18T11:48:38;21.27;;;10.47;;
18596;SDS011;9428;50.950;6.912;2022-12-18T11:51:32;23.03;;;9.73;;
18596;SDS011;9428;50.950;6.912;2022-12-18T11:54:23;17.73;;;10.20;;
18596;SDS011;9428;50.950;6.912;2022-12-18T11:57:11;22.87;;;11.17;;
18596;SDS011;9428;50.950;6.912;2022-12-18T12:00:11;27.03;;;10.80;;
18596;SDS011;9428;50.950;6.912;2022-12-18T12:03:20;22.97;;;10.43;;
18596;SDS011;9428;50.950;6.912;2022-12-18T12:06:16;22.90;;;10.67;;
18596;SDS011;9428;50.950;6.912;2022-12-18T12:09:09;22.10;;;10.07;;
18596;SDS011;9428;50.950;6.912;2022-12-18T12:12:09;22.20;;;11.10;;
18596;SDS011;9428;50.950;6.912;2022-12-18T12:15:05;23.10;;;11.07;;
18596;SDS011;9428;50.950;6.912;2022-12-18T12:18:01;23.27;;;11.10;;
18596;SDS011;9428;50.950;6.912;2022-12-18T12:20:56;22.07;;;11.03;;
18596;SDS011;9428;50.950;6.912;2022-12-18T12:23:51;21.90;;;11.03;;
18596;SDS011;9428;50.950;6.912;2022-12-18T12:26:45;22.20;;;11.43;;
18596;SDS011;9428;50.950;6.912;2022-12-18T12:29:45;24.27;;;11.87;;
18596;SDS011;9428;50.950;6.912;2022-12-18T12:32:48;24.80;;;12.23;;
18596;SDS011;9428;50.950;6.912;2022-12-18T12:35:47;21.73;;;11.33;;
18596;SDS011;9428;50.950;6.912;2022-12-18T12:38:40;20.00;;;9.93;;
18596;SDS011;9428;50.950;6.912;2022-12-18T12:41:32;21.47;;;11.40;;
18596;SDS011;9428;50.950;6.912;2022-12-18T12:44:40;20.03;;;10.53;;
18596;SDS011;9428;50.950;6.912;2022-12-18T12:47:31;24.03;;;10.87;;
18596;SDS011;9428;50.950;6.912;2022-12-18T12:50:22;27.50;;;11.67;;
18596;SDS011;9428;50.950;6.912;2022-12-18T12:53:12;23.40;;;10.93;;
18596;SDS011;9428;50.950;6.912;2022-12-18T12:56:08;28.20;;;11.70;;
18596;SDS011;9428;50.950;6.912;2022-12-18T12:59:01;26.90;;;13.33;;
18596;SDS011;9428;50.950;6.912;2022-12-18T13:02:01;23.50;;;12.33;;
18596;SDS011;9428;50.950;6.912;2022-12-18T13:04:56;22.67;;;12.10;;
18596;SDS011;9428;50.950;6.912;2022-12-18T13:07:49;26.63;;;11.70;;
18596;SDS011;9428;50.950;6.912;2022-12-18T13:10:40;24.37;;;13.13;;
18596;SDS011;9428;50.950;6.912;2022-12-18T13:13:28;27.67;;;12.67;;
18596;SDS011;9428;50.950;6.912;2022-12-18T13:16:35;25.83;;;11.77;;
18596;SDS011;9428;50.950;6.912;2022-12-18T13:19:25;23.20;;;11.87;;
18596;SDS011;9428;50.950;6.912;2022-12-18T13:22:21;27.07;;;12.43;;
18596;SDS011;9428;50.950;6.912;2022-12-18T13:28:21;27.77;;;13.60;;
18596;SDS011;9428;50.950;6.912;2022-12-18T13:31:11;19.23;;;11.30;;
18596;SDS011;9428;50.950;6.912;2022-12-18T13:34:08;26.33;;;12.57;;
18596;SDS011;9428;50.950;6.912;2022-12-18T13:43:43;26.47;;;12.93;;
18596;SDS011;9428;50.950;6.912;2022-12-18T13:46:41;27.70;;;11.67;;
18596;SDS011;9428;50.950;6.912;2022-12-18T13:49:35;25.43;;;12.30;;
18596;SDS011;9428;50.950;6.912;2022-12-18T13:52:25;26.57;;;13.87;;
18596;SDS011;9428;50.950;6.912;2022-12-18T13:55:14;31.77;;;13.57;;
18596;SDS011;9428;50.950;6.912;2022-12-18T13:58:05;25.30;;;12.90;;
18596;SDS011;9428;50.950;6.912;2022-12-18T14:00:52;27.50;;;12.63;;
18596;SDS011;9428;50.950;6.912;2022-12-18T14:03:39;28.57;;;13.80;;
18596;SDS011;9428;50.950;6.912;2022-12-18T14:06:28;24.30;;;13.00;;
18596;SDS011;9428;50.950;6.912;2022-12-18T14:09:16;27.30;;;14.30;;
18596;SDS011;9428;50.950;6.912;2022-12-18T14:12:11;26.57;;;12.90;;
18596;SDS011;9428;50.950;6.912;2022-12-18T14:15:21;31.90;;;13.13;;
18596;SDS011;9428;50.950;6.912;2022-12-18T14:18:19;26.90;;;13.43;;
18596;SDS011;9428;50.950;6.912;2022-12-18T14:21:14;25.97;;;13.50;;
18596;SDS011;9428;50.950;6.912;2022-12-18T14:24:12;27.20;;;13.30;;
18596;SDS011;9428;50.950;6.912;2022-12-18T14:27:11;25.87;;;13.53;;
18596;SDS011;9428;50.950;6.912;2022-12-18T14:30:18;27.33;;;13.73;;
18596;SDS011;9428;50.950;6.912;2022-12-18T14:33:11;25.63;;;12.93;;
18596;SDS011;9428;50.950;6.912;2022-12-18T14:36:00;24.50;;;13.93;;
18596;SDS011;9428;50.950;6.912;2022-12-18T14:38:49;24.20;;;13.90;;
18596;SDS011;9428;50.950;6.912;2022-12-18T14:41:40;26.97;;;13.10;;
18596;SDS011;9428;50.950;6.912;2022-12-18T14:44:27;26.43;;;12.77;;
18596;SDS011;9428;50.950;6.912;2022-12-18T14:47:15;28.87;;;12.77;;
18596;SDS011;9428;50.950;6.912;2022-12-18T14:50:03;27.27;;;13.07;;
18596;SDS011;9428;50.950;6.912;2022-12-18T14:52:58;28.07;;;13.17;;
18596;SDS011;9428;50.950;6.912;2022-12-18T14:55:45;28.50;;;13.47;;
18596;SDS011;9428;50.950;6.912;2022-12-18T14:58:35;22.67;;;13.03;;
18596;SDS011;9428;50.950;6.912;2022-12-18T15:01:23;32.67;;;15.57;;
18596;SDS011;9428;50.950;6.912;2022-12-18T15:04:23;31.53;;;12.47;;
18596;SDS011;9428;50.950;6.912;2022-12-18T15:07:13;30.73;;;14.37;;
18596;SDS011;9428;50.950;6.912;2022-12-18T15:10:03;24.90;;;13.20;;
18596;SDS011;9428;50.950;6.912;2022-12-18T15:13:08;29.30;;;14.27;;
18596;SDS011;9428;50.950;6.912;2022-12-18T15:16:05;31.37;;;14.53;;
18596;SDS011;9428;50.950;6.912;2022-12-18T15:18:58;29.60;;;14.20;;
18596;SDS011;9428;50.950;6.912;2022-12-18T15:21:47;32.97;;;15.17;;
18596;SDS011;9428;50.950;6.912;2022-12-18T15:24:35;26.30;;;13.60;;
18596;SDS011;9428;50.950;6.912;2022-12-18T15:27:23;26.63;;;14.57;;
18596;SDS011;9428;50.950;6.912;2022-12-18T15:30:16;25.87;;;13.40;;
18596;SDS011;9428;50.950;6.912;2022-12-18T15:36:11;27.23;;;13.47;;
18596;SDS011;9428;50.950;6.912;2022-12-18T15:39:00;28.23;;;12.73;;
18596;SDS011;9428;50.950;6.912;2022-12-18T15:41:47;24.90;;;13.63;;
18596;SDS011;9428;50.950;6.912;2022-12-18T15:44:52;29.23;;;14.10;;
18596;SDS011;9428;50.950;6.912;2022-12-18T15:47:40;28.07;;;13.33;;
18596;SDS011;9428;50.950;6.912;2022-12-18T15:50:29;27.20;;;14.50;;
18596;SDS011;9428;50.950;6.912;2022-12-18T15:53:16;27.13;;;13.73;;
18596;SDS011;9428;50.950;6.912;2022-12-18T15:56:05;32.07;;;15.83;;
18596;SDS011;9428;50.950;6.912;2022-12-18T15:59:14;27.67;;;14.67;;
18596;SDS011;9428;50.950;6.912;2022-12-18T16:02:07;28.13;;;14.77;;
18596;SDS011;9428;50.950;6.912;2022-12-18T16:05:03;25.83;;;13.77;;
18596;SDS011;9428;50.950;6.912;2022-12-18T16:07:57;27.87;;;15.13;;
18596;SDS011;9428;50.950;6.912;2022-12-18T16:10:44;31.00;;;14.47;;
18596;SDS011;9428;50.950;6.912;2022-12-18T16:13:32;33.73;;;15.63;;
18596;SDS011;9428;50.950;6.912;2022-12-18T16:16:19;30.23;;;14.77;;
18596;SDS011;9428;50.950;6.912;2022-12-18T16:19:06;31.40;;;15.77;;
18596;SDS011;9428;50.950;6.912;2022-12-18T16:21:54;27.07;;;15.60;;
18596;SDS011;9428;50.950;6.912;2022-12-18T16:24:43;32.17;;;15.50;;
18596;SDS011;9428;50.950;6.912;2022-12-18T16:27:30;32.90;;;15.20;;
18596;SDS011;9428;50.950;6.912;2022-12-18T16:30:19;31.63;;;15.93;;
18596;SDS011;9428;50.950;6.912;2022-12-18T16:33:08;28.23;;;16.03;;
18596;SDS011;9428;50.950;6.912;2022-12-18T16:35:56;32.60;;;15.43;;
18596;SDS011;9428;50.950;6.912;2022-12-18T16:38:43;35.53;;;16.57;;
18596;SDS011;9428;50.950;6.912;2022-12-18T16:41:32;28.10;;;15.50;;
18596;SDS011;9428;50.950;6.912;2022-12-18T16:44:19;32.70;;;16.00;;
18596;SDS011;9428;50.950;6.912;2022-12-18T16:47:06;34.13;;;15.03;;
18596;SDS011;9428;50.950;6.912;2022-12-18T16:49:53;31.90;;;15.83;;
18596;SDS011;9428;50.950;6.912;2022-12-18T16:52:41;30.30;;;15.13;;
18596;SDS011;9428;50.950;6.912;2022-12-18T16:55:28;35.40;;;17.33;;
18596;SDS011;9428;50.950;6.912;2022-12-18T16:58:16;27.90;;;15.13;;
18596;SDS011;9428;50.950;6.912;2022-12-18T17:01:06;35.80;;;17.33;;
18596;SDS011;9428;50.950;6.912;2022-12-18T17:03:54;33.57;;;15.03;;
18596;SDS011;9428;50.950;6.912;2022-12-18T17:06:43;33.03;;;15.10;;
18596;SDS011;9428;50.950;6.912;2022-12-18T17:09:36;31.23;;;14.50;;
18596;SDS011;9428;50.950;6.912;2022-12-18T17:12:23;30.83;;;15.73;;
18596;SDS011;9428;50.950;6.912;2022-12-18T17:15:12;32.17;;;15.03;;